FADY

De Aar Military Airport

De Aar, South Africa
METAR FADY 170524Z 01011G23KT CAVOK 25/12 Q1016
Observed Flight Rules
Dec-17 @ 05:24 UTC (54 minutes ago) Visual Flight Rules
Wind Visibility Clouds
10° at 11 knots
 Gusting to 23 knots
10,000+ meters
  • Clear skies
Temperatures Readings
Current 25°C / 77°F
Dewpoint 12°C / 54°F
Humidity 44%
Altimeter 30" Hg
Pressure 1016 hPa
Elevation 384
METAR FADY 170524Z 01011G23KT CAVOK 25/12 Q1016
Observed Flight Rules
Dec-17 @ 05:24 UTC
(54 minutes ago)
VFR
Wind Visibility
10° at 11 knots
 Gusting to 23 knots
10,000+ meters
Clouds
  • Clear skies
Temperature Dewpoint
25°C / 77°F 12°C / 54°F
Humidity Altimeter Pressure
44% 30" Hg 1016 hPa